Time;durP1;ratioP1;P1;durP2;ratioP2;P2;SDS_P1;SDS_P2;PMS_P1;PMS_P2;Temp;Humidity;BMP_temperature;BMP_pressure;BME280_temperature;BME280_humidity;BME280_pressure;Samples;Min_cycle;Max_cycle;Signal;HPM_P1;HPM_P2
2022/10/14 00:01:04;;;;;;;1.60;1.50;;;;;;;;;;5033628;28;20123;-59
2022/10/14 00:03:30;;;;;;;1.70;1.60;;;;;;;;;;5038089;28;20405;-58
2022/10/14 00:05:56;;;;;;;1.80;1.70;;;;;;;;;;5034737;28;20288;-59
2022/10/14 00:08:23;;;;;;;1.70;1.60;;;;;;;;;;5031217;28;20029;-59
2022/10/14 00:10:49;;;;;;;1.58;1.48;;;;;;;;;;5036612;28;20431;-59
2022/10/14 00:13:15;;;;;;;1.67;1.58;;;;;;;;;;5032564;28;20041;-58
2022/10/14 00:15:41;;;;;;;1.60;1.50;;;;;;;;;;5035171;28;20069;-59
2022/10/14 00:18:08;;;;;;;1.92;1.83;;;;;;;;;;5034461;28;20037;-59
2022/10/14 00:20:34;;;;;;;1.80;1.70;;;;;;;;;;5036191;28;20053;-59
2022/10/14 00:23:00;;;;;;;1.83;1.73;;;;;;;;;;5030838;28;20500;-59
2022/10/14 00:25:27;;;;;;;2.67;2.50;;;;;;;;;;5038167;28;20059;-58
2022/10/14 00:27:53;;;;;;;2.50;2.40;;;;;;;;;;5035590;28;20250;-59
2022/10/14 00:30:19;;;;;;;;;;;;;;;;;;5035923;28;20294;-59
2022/10/14 00:32:44;;;;;;;;;;;;;;;;;;5032539;28;20000;-60
2022/10/14 00:35:10;;;;;;;;;;;;;;;;;;5036581;28;19924;-59
2022/10/14 00:37:36;;;;;;;;;;;;;;;;;;5033293;28;19928;-58
2022/10/14 00:40:02;;;;;;;;;;;;;;;;;;5036185;28;19928;-58
2022/10/14 00:42:28;;;;;;;;;;;;;;;;;;5037155;28;20391;-59
2022/10/14 00:44:54;;;;;;;;;;;;;;;;;;5037524;28;19932;-58
2022/10/14 00:47:20;;;;;;;;;;;;;;;;;;5036128;28;19924;-59
2022/10/14 00:49:46;;;;;;;2.63;2.42;;;;;;;;;;5033561;28;19925;-60
2022/10/14 00:52:17;;;;;;;3.20;3.00;;;;;;;;;;5032811;28;20388;-59
2022/10/14 00:55:02;;;;;;;2.63;2.47;;;;;;;;;;5035382;28;20431;-59
2022/10/14 00:57:29;;;;;;;2.80;2.60;;;;;;;;;;5033967;28;20040;-59
2022/10/14 00:59:59;;;;;;;2.70;2.50;;;;;;;;;;5035000;28;20045;-59
2022/10/14 01:02:25;;;;;;;2.90;2.70;;;;;;;;;;5034096;28;20045;-59
2022/10/14 01:04:51;;;;;;;2.70;2.50;;;;;;;;;;5035246;28;20458;-59
2022/10/14 01:07:26;;;;;;;2.92;2.72;;;;;;;;;;5033426;28;20049;-58
2022/10/14 01:09:57;;;;;;;2.20;2.10;;;;;;;;;;5032768;28;20099;-59
2022/10/14 01:12:42;;;;;;;2.20;2.10;;;;;;;;;;5036533;28;20037;-59
2022/10/14 01:15:24;;;;;;;1.90;1.80;;;;;;;;;;5034544;28;20053;-59
2022/10/14 01:17:54;;;;;;;2.13;2.03;;;;;;;;;;5034875;28;20048;-59
2022/10/14 01:20:32;;;;;;;2.42;1.83;;;;;;;;;;5035562;28;20049;-59
2022/10/14 01:23:17;;;;;;;2.72;2.53;;;;;;;;;;5035338;28;20400;-59
2022/10/14 01:25:52;;;;;;;3.15;2.95;;;;;;;;;;5037359;28;20098;-58
2022/10/14 01:28:27;;;;;;;2.70;2.50;;;;;;;;;;5031063;28;20492;-58
2022/10/14 01:31:04;;;;;;;2.78;2.58;;;;;;;;;;5034902;28;20060;-58
2022/10/14 01:33:36;;;;;;;2.58;2.38;;;;;;;;;;5034112;28;20045;-58
2022/10/14 01:36:20;;;;;;;3.80;3.50;;;;;;;;;;5034453;28;20095;-59
2022/10/14 01:38:49;;;;;;;2.97;2.78;;;;;;;;;;5030688;28;20041;-58
2022/10/14 01:41:18;;;;;;;3.05;2.85;;;;;;;;;;5047897;28;20047;-58
2022/10/14 01:43:44;;;;;;;;;;;;;;;;;;5033065;28;20523;-59
2022/10/14 01:46:10;;;;;;;;;;;;;;;;;;5033030;28;19921;-58
2022/10/14 01:48:36;;;;;;;;;;;;;;;;;;5032056;28;19928;-58
2022/10/14 01:51:02;;;;;;;;;;;;;;;;;;5034178;28;20358;-58
2022/10/14 01:53:28;;;;;;;;;;;;;;;;;;5031792;28;20012;-58
2022/10/14 01:55:53;;;;;;;;;;;;;;;;;;5034642;28;19991;-59
2022/10/14 01:58:19;;;;;;;;;;;;;;;;;;5035272;28;20165;-58
2022/10/14 02:00:46;;;;;;;;;;;;;;;;;;5034917;28;19921;-59
2022/10/14 02:03:12;;;;;;;;;;;;;;;;;;5032086;28;19920;-59
2022/10/14 02:05:38;;;;;;;;;;;;;;;;;;5035217;28;19929;-59
2022/10/14 02:08:04;;;;;;;;;;;;;;;;;;5033900;28;19920;-58
2022/10/14 02:10:30;;;;;;;;;;;;;;;;;;5032508;28;19995;-59
2022/10/14 02:12:56;;;;;;;;;;;;;;;;;;5035724;28;19925;-58
2022/10/14 02:15:22;;;;;;;;;;;;;;;;;;5035898;28;19925;-58
2022/10/14 02:17:48;;;;;;;;;;;;;;;;;;5040200;28;19920;-59
2022/10/14 02:20:14;;;;;;;;;;;;;;;;;;5037935;28;19924;-58
2022/10/14 02:22:39;;;;;;;;;;;;;;;;;;5037053;28;19925;-58
2022/10/14 02:25:06;;;;;;;;;;;;;;;;;;5036994;28;19933;-58
2022/10/14 02:27:32;;;;;;;;;;;;;;;;;;5038113;28;20299;-59
2022/10/14 02:29:58;;;;;;;;;;;;;;;;;;5037658;28;19921;-59
2022/10/14 02:32:23;;;;;;;;;;;;;;;;;;5034946;28;20503;-58
2022/10/14 02:34:49;;;;;;;;;;;;;;;;;;5036901;28;20028;-59
2022/10/14 02:37:15;;;;;;;;;;;;;;;;;;5037367;28;19927;-58
2022/10/14 02:39:42;;;;;;;;;;;;;;;;;;5037389;28;19921;-59
2022/10/14 02:42:07;;;;;;;;;;;;;;;;;;5038973;28;19921;-59
2022/10/14 02:44:33;;;;;;;;;;;;;;;;;;5035337;28;20300;-59
2022/10/14 02:46:59;;;;;;;;;;;;;;;;;;5039490;28;19971;-59
2022/10/14 02:49:25;;;;;;;;;;;;;;;;;;5034427;28;20015;-59
2022/10/14 02:51:51;;;;;;;;;;;;;;;;;;5036491;28;19928;-59
2022/10/14 02:54:17;;;;;;;;;;;;;;;;;;5038335;28;19928;-58
2022/10/14 02:56:43;;;;;;;;;;;;;;;;;;5037853;28;19921;-59
2022/10/14 02:59:09;;;;;;;;;;;;;;;;;;5040009;28;19929;-58
2022/10/14 03:01:35;;;;;;;;;;;;;;;;;;5038074;28;19925;-58
2022/10/14 03:04:01;;;;;;;;;;;;;;;;;;5034612;28;19935;-59
2022/10/14 03:06:27;;;;;;;;;;;;;;;;;;5037899;28;20387;-59
2022/10/14 03:08:53;;;;;;;;;;;;;;;;;;5033299;28;20295;-59
2022/10/14 03:11:19;;;;;;;;;;;;;;;;;;5037210;28;19929;-59
2022/10/14 03:13:45;;;;;;;;;;;;;;;;;;5036158;28;19931;-59
2022/10/14 03:16:10;;;;;;;;;;;;;;;;;;5038831;28;20390;-58
2022/10/14 03:18:36;;;;;;;;;;;;;;;;;;5038046;28;19921;-58
2022/10/14 03:21:02;;;;;;;;;;;;;;;;;;5037618;28;19936;-59
2022/10/14 03:23:28;;;;;;;;;;;;;;;;;;5036245;28;20357;-58
2022/10/14 03:25:54;;;;;;;;;;;;;;;;;;5038040;28;19929;-58
2022/10/14 03:28:20;;;;;;;;;;;;;;;;;;5040305;28;19925;-59
2022/10/14 03:30:46;;;;;;;;;;;;;;;;;;5037111;28;19921;-59
2022/10/14 03:33:12;;;;;;;;;;;;;;;;;;5037022;28;20388;-58
2022/10/14 03:35:38;;;;;;;;;;;;;;;;;;5037308;28;19925;-59
2022/10/14 03:38:05;;;;;;;;;;;;;;;;;;5034273;28;20063;-59
2022/10/14 03:40:31;;;;;;;;;;;;;;;;;;5040516;28;19964;-58
2022/10/14 03:42:57;;;;;;;;;;;;;;;;;;5051894;28;20013;-59
2022/10/14 03:45:23;;;;;;;;;;;;;;;;;;5032947;28;20372;-58
2022/10/14 03:47:49;;;;;;;;;;;;;;;;;;5039706;28;19928;-59
2022/10/14 03:50:15;;;;;;;;;;;;;;;;;;5034631;28;19925;-59
2022/10/14 03:52:41;;;;;;;;;;;;;;;;;;5037014;28;20482;-58
2022/10/14 03:55:07;;;;;;;;;;;;;;;;;;5035458;28;19923;-59
2022/10/14 03:57:33;;;;;;;;;;;;;;;;;;5035170;28;19935;-58
2022/10/14 03:59:59;;;;;;;;;;;;;;;;;;5037146;28;20421;-59
2022/10/14 04:02:25;;;;;;;;;;;;;;;;;;5039103;28;19921;-58
2022/10/14 04:04:51;;;;;;;;;;;;;;;;;;5038049;28;19960;-58
2022/10/14 04:07:17;;;;;;;;;;;;;;;;;;5034781;28;19931;-59
2022/10/14 04:09:43;;;;;;;;;;;;;;;;;;5033651;28;19923;-58
2022/10/14 04:12:09;;;;;;;;;;;;;;;;;;5032510;28;19928;-58
2022/10/14 04:14:35;;;;;;;;;;;;;;;;;;5035706;28;19927;-59
2022/10/14 04:17:01;;;;;;;;;;;;;;;;;;5036071;28;19920;-58
2022/10/14 04:19:27;;;;;;;;;;;;;;;;;;5035266;28;19921;-58
2022/10/14 04:21:52;;;;;;;;;;;;;;;;;;5035228;28;19955;-58
2022/10/14 04:24:18;;;;;;;;;;;;;;;;;;5038319;28;19982;-58
2022/10/14 04:26:44;;;;;;;;;;;;;;;;;;5037155;28;20016;-58
2022/10/14 04:29:10;;;;;;;;;;;;;;;;;;5038119;28;20286;-58
2022/10/14 04:31:36;;;;;;;;;;;;;;;;;;5034901;28;19927;-58
2022/10/14 04:34:02;;;;;;;;;;;;;;;;;;5037158;28;19921;-60
2022/10/14 04:36:28;;;;;;;;;;;;;;;;;;5032924;28;20037;-58
2022/10/14 04:38:54;;;;;;;;;;;;;;;;;;5034477;28;19924;-59
2022/10/14 04:41:20;;;;;;;;;;;;;;;;;;5034576;28;19931;-58
2022/10/14 04:43:46;;;;;;;;;;;;;;;;;;5033461;28;19997;-59
2022/10/14 04:46:12;;;;;;;;;;;;;;;;;;5036604;28;20311;-58
2022/10/14 04:48:37;;;;;;;;;;;;;;;;;;5034449;28;20346;-59
2022/10/14 04:51:03;;;;;;;;;;;;;;;;;;5030976;28;20302;-58
2022/10/14 04:53:29;;;;;;;;;;;;;;;;;;5034513;28;19921;-58
2022/10/14 04:55:55;;;;;;;;;;;;;;;;;;5033666;28;19932;-58
2022/10/14 04:58:21;;;;;;;;;;;;;;;;;;5036574;28;19921;-58
2022/10/14 05:00:47;;;;;;;;;;;;;;;;;;5039434;28;19975;-58
2022/10/14 05:03:13;;;;;;;;;;;;;;;;;;5037940;28;20011;-58
2022/10/14 05:05:39;;;;;;;;;;;;;;;;;;5032465;28;19931;-58
2022/10/14 05:08:05;;;;;;;;;;;;;;;;;;5035150;28;19928;-59
2022/10/14 05:10:31;;;;;;;;;;;;;;;;;;5035418;28;19924;-58
2022/10/14 05:12:57;;;;;;;;;;;;;;;;;;5033363;28;19973;-58
2022/10/14 05:15:23;;;;;;;;;;;;;;;;;;5034924;28;19971;-59
2022/10/14 05:17:48;;;;;;;;;;;;;;;;;;5036845;28;20548;-59
2022/10/14 05:20:14;;;;;;;;;;;;;;;;;;5035681;28;19925;-58
2022/10/14 05:22:40;;;;;;;;;;;;;;;;;;5037095;28;19974;-59
2022/10/14 05:25:06;;;;;;;;;;;;;;;;;;5035220;28;20359;-59
2022/10/14 05:27:32;;;;;;;;;;;;;;;;;;5033014;28;19928;-59
2022/10/14 05:29:58;;;;;;;;;;;;;;;;;;5034930;28;19933;-59
2022/10/14 05:32:24;;;;;;;;;;;;;;;;;;5034646;28;20346;-59
2022/10/14 05:34:50;;;;;;;;;;;;;;;;;;5035028;28;19987;-59
2022/10/14 05:37:16;;;;;;;;;;;;;;;;;;5036863;28;19925;-58
2022/10/14 05:39:42;;;;;;;;;;;;;;;;;;5033461;28;20024;-58
2022/10/14 05:42:07;;;;;;;;;;;;;;;;;;5032798;28;19924;-59
2022/10/14 05:44:33;;;;;;;;;;;;;;;;;;5031002;28;19971;-58
2022/10/14 05:46:59;;;;;;;;;;;;;;;;;;5035140;28;20016;-59
2022/10/14 05:49:25;;;;;;;;;;;;;;;;;;5034482;28;19920;-59
2022/10/14 05:51:51;;;;;;;;;;;;;;;;;;5040525;28;19925;-59
2022/10/14 05:54:17;;;;;;;;;;;;;;;;;;5037303;28;20366;-59
2022/10/14 05:56:43;;;;;;;;;;;;;;;;;;5038942;28;19978;-58
2022/10/14 05:59:09;;;;;;;;;;;;;;;;;;5037280;28;19928;-58
2022/10/14 06:01:36;;;;;;;;;;;;;;;;;;5039634;28;19924;-58
2022/10/14 06:04:02;;;;;;;;;;;;;;;;;;5040038;28;19925;-59
2022/10/14 06:06:28;;;;;;;;;;;;;;;;;;5037312;28;19974;-58
2022/10/14 06:08:54;;;;;;;;;;;;;;;;;;5039936;28;19920;-59
2022/10/14 06:11:20;;;;;;;;;;;;;;;;;;5040407;28;20282;-58
2022/10/14 06:13:46;;;;;;;;;;;;;;;;;;5036321;28;19963;-58
2022/10/14 06:16:12;;;;;;;;;;;;;;;;;;5037705;28;19929;-58
2022/10/14 06:18:38;;;;;;;;;;;;;;;;;;5038883;28;19979;-59
2022/10/14 06:21:04;;;;;;;;;;;;;;;;;;5039803;28;19920;-58
2022/10/14 06:23:30;;;;;;;;;;;;;;;;;;5039342;28;19924;-59
2022/10/14 06:25:55;;;;;;;;;;;;;;;;;;5038906;28;19924;-59
2022/10/14 06:28:21;;;;;;;;;;;;;;;;;;5039465;28;20325;-59
2022/10/14 06:30:47;;;;;;;;;;;;;;;;;;5035714;28;19974;-59
2022/10/14 06:33:13;;;;;;;;;;;;;;;;;;5036713;28;20067;-59
2022/10/14 06:35:39;;;;;;;;;;;;;;;;;;5035427;28;19960;-59
2022/10/14 06:38:05;;;;;;;;;;;;;;;;;;5038446;28;20311;-58
2022/10/14 06:40:31;;;;;;;;;;;;;;;;;;5037235;28;19931;-58
2022/10/14 06:42:57;;;;;;;;;;;;;;;;;;5041218;28;19928;-59
2022/10/14 06:45:23;;;;;;;;;;;;;;;;;;5034643;28;20279;-59
2022/10/14 06:47:49;;;;;;;;;;;;;;;;;;5038816;28;19936;-58
2022/10/14 06:50:15;;;;;;;;;;;;;;;;;;5036128;28;19925;-58
2022/10/14 06:52:40;;;;;;;;;;;;;;;;;;5038211;28;19932;-58
2022/10/14 06:55:06;;;;;;;;;;;;;;;;;;5034484;28;20303;-58
2022/10/14 06:57:32;;;;;;;;;;;;;;;;;;5037944;28;19933;-58
2022/10/14 06:59:58;;;;;;;;;;;;;;;;;;5037491;28;20025;-58
2022/10/14 07:02:24;;;;;;;;;;;;;;;;;;5037174;28;19925;-59
2022/10/14 07:04:50;;;;;;;;;;;;;;;;;;5038031;28;19932;-58
2022/10/14 07:07:16;;;;;;;;;;;;;;;;;;5035926;28;19932;-59
2022/10/14 07:09:42;;;;;;;;;;;;;;;;;;5036061;28;19924;-58
2022/10/14 07:12:08;;;;;;;;;;;;;;;;;;5038271;28;20557;-58
2022/10/14 07:14:34;;;;;;;;;;;;;;;;;;5038878;28;19925;-58
2022/10/14 07:17:00;;;;;;;;;;;;;;;;;;5035682;28;19921;-58
2022/10/14 07:19:26;;;;;;;;;;;;;;;;;;5037865;28;20291;-58
2022/10/14 07:21:51;;;;;;;;;;;;;;;;;;5040205;28;19921;-58
2022/10/14 07:24:17;;;;;;;;;;;;;;;;;;5037995;28;19921;-60
2022/10/14 07:26:43;;;;;;;;;;;;;;;;;;5050673;28;20012;-58
2022/10/14 07:29:09;;;;;;;;;;;;;;;;;;5040419;28;20368;-59
2022/10/14 07:31:35;;;;;;;;;;;;;;;;;;5042597;28;19994;-57
2022/10/14 07:34:01;;;;;;;;;;;;;;;;;;5030383;28;19921;-56
2022/10/14 07:36:27;;;;;;;;;;;;;;;;;;5040340;28;19925;-57
2022/10/14 07:38:53;;;;;;;;;;;;;;;;;;5035966;28;20007;-57
2022/10/14 07:41:19;;;;;;;;;;;;;;;;;;5041154;28;19928;-57
2022/10/14 07:43:45;;;;;;;;;;;;;;;;;;5041204;28;20351;-57
2022/10/14 07:46:11;;;;;;;;;;;;;;;;;;5045381;28;20391;-57
2022/10/14 07:48:37;;;;;;;;;;;;;;;;;;5041263;28;19968;-58
2022/10/14 07:51:04;;;;;;;;;;;;;;;;;;5043759;28;20323;-57
2022/10/14 07:53:30;;;;;;;;;;;;;;;;;;5039728;28;20430;-57
2022/10/14 07:55:57;;;;;;;;;;;;;;;;;;5040413;28;19921;-57
2022/10/14 07:58:23;;;;;;;;;;;;;;;;;;5041754;28;20319;-58
2022/10/14 08:00:49;;;;;;;;;;;;;;;;;;5037377;28;19935;-58
2022/10/14 08:03:15;;;;;;;;;;;;;;;;;;5037987;28;20300;-57
2022/10/14 08:05:41;;;;;;;;;;;;;;;;;;5038861;28;19921;-57
2022/10/14 08:08:07;;;;;;;;;;;;;;;;;;5041640;28;19928;-58
2022/10/14 08:10:33;;;;;;;;;;;;;;;;;;5039013;28;20026;-57
2022/10/14 08:12:59;;;;;;;;;;;;;;;;;;5043172;28;20019;-58
2022/10/14 08:15:28;;;;;;;;;;;;;;;;;;5042555;28;19924;-58
2022/10/14 08:17:54;;;;;;;;;;;;;;;;;;5035751;28;19929;-57
2022/10/14 08:20:20;;;;;;;;;;;;;;;;;;5042942;28;20330;-57
2022/10/14 08:22:46;;;;;;;;;;;;;;;;;;5040552;28;20021;-57
2022/10/14 08:25:12;;;;;;;;;;;;;;;;;;5038060;28;19928;-57
2022/10/14 08:27:38;;;;;;;;;;;;;;;;;;5031785;28;20383;-58
2022/10/14 08:30:03;;;;;;;;;;;;;;;;;;5042048;28;19920;-57
2022/10/14 08:32:29;;;;;;;;;;;;;;;;;;5038605;28;19929;-57
2022/10/14 08:34:55;;;;;;;;;;;;;;;;;;5033996;28;20295;-58
2022/10/14 08:37:21;;;;;;;;;;;;;;;;;;5032138;28;19921;-57
2022/10/14 08:39:47;;;;;;;;;;;;;;;;;;5042564;28;19920;-57
2022/10/14 08:42:15;;;;;;;;;;;;;;;;;;5042211;28;20342;-58
2022/10/14 08:44:40;;;;;;;;;;;;;;;;;;5035263;28;20439;-57
2022/10/14 08:47:06;;;;;;;;;;;;;;;;;;5031440;28;20008;-58
2022/10/14 08:49:32;;;;;;;;;;;;;;;;;;5038890;28;20249;-60
2022/10/14 08:51:58;;;;;;;;;;;;;;;;;;5041924;28;20148;-60
2022/10/14 08:54:24;;;;;;;;;;;;;;;;;;5037614;28;19920;-57
2022/10/14 08:56:50;;;;;;;;;;;;;;;;;;5040534;28;19931;-57
2022/10/14 08:59:16;;;;;;;;;;;;;;;;;;5041027;28;19921;-60
2022/10/14 09:01:42;;;;;;;;;;;;;;;;;;5034480;28;19920;-58
2022/10/14 09:04:08;;;;;;;;;;;;;;;;;;5044499;28;19920;-59
2022/10/14 09:06:34;;;;;;;;;;;;;;;;;;5042219;28;19921;-55
2022/10/14 09:09:00;;;;;;;;;;;;;;;;;;5034586;28;19920;-57
2022/10/14 09:11:25;;;;;;;;;;;;;;;;;;5044480;28;19982;-58
2022/10/14 09:13:51;;;;;;;;;;;;;;;;;;5040799;28;19936;-57
2022/10/14 09:16:17;;;;;;;;;;;;;;;;;;5038394;28;19920;-57
2022/10/14 09:18:43;;;;;;;;;;;;;;;;;;5030478;28;19927;-57
2022/10/14 09:21:09;;;;;;;;;;;;;;;;;;5045897;28;19924;-57
2022/10/14 09:23:35;;;;;;;;;;;;;;;;;;5045459;28;19929;-57
2022/10/14 09:26:01;;;;;;;;;;;;;;;;;;5050265;28;20359;-58
2022/10/14 09:28:27;;;;;;;;;;;;;;;;;;5050486;28;19921;-57
2022/10/14 09:30:53;;;;;;;;;;;;;;;;;;5049372;28;20178;-58
2022/10/14 09:33:19;;;;;;;;;;;;;;;;;;5046614;28;19999;-57
2022/10/14 09:35:45;;;;;;;;;;;;;;;;;;5045156;28;19927;-57
2022/10/14 09:38:11;;;;;;;;;;;;;;;;;;5044322;28;19928;-57
2022/10/14 09:40:38;;;;;;;;;;;;;;;;;;5049372;28;19920;-57
2022/10/14 09:43:04;;;;;;;;;;;;;;;;;;5047028;28;19921;-57
2022/10/14 09:45:30;;;;;;;;;;;;;;;;;;5049354;28;19925;-57
2022/10/14 09:47:56;;;;;;;;;;;;;;;;;;5049802;28;20372;-57
2022/10/14 09:50:22;;;;;;;;;;;;;;;;;;5048706;28;20558;-59
2022/10/14 09:52:47;;;;;;;;;;;;;;;;;;5049559;28;19931;-59
2022/10/14 09:55:13;;;;;;;;;;;;;;;;;;5049469;28;19921;-58
2022/10/14 09:57:39;;;;;;;;;;;;;;;;;;5048547;28;19925;-56
2022/10/14 10:00:05;;;;;;;;;;;;;;;;;;5049397;28;19932;-56
2022/10/14 10:02:31;;;;;;;;;;;;;;;;;;5048779;28;20376;-56
2022/10/14 10:04:57;;;;;;;;;;;;;;;;;;5047731;28;19925;-56
2022/10/14 10:07:25;;;;;;;;;;;;;;;;;;5039569;28;19925;-56
2022/10/14 10:09:50;;;;;;;;;;;;;;;;;;5049094;28;19970;-56
2022/10/14 10:12:17;;;;;;;;;;;;;;;;;;5047251;28;19920;-56
2022/10/14 10:14:43;;;;;;;;;;;;;;;;;;5048178;28;19952;-56
2022/10/14 10:17:08;;;;;;;;;;;;;;;;;;5048329;28;19960;-56
2022/10/14 10:19:34;;;;;;;;;;;;;;;;;;5047461;28;20271;-56
2022/10/14 10:22:00;;;;;;;;;;;;;;;;;;5048469;28;19929;-56
2022/10/14 10:24:26;;;;;;;;;;;;;;;;;;5048703;28;19969;-56
2022/10/14 10:26:52;;;;;;;;;;;;;;;;;;5046425;28;19989;-56
2022/10/14 10:29:18;;;;;;;;;;;;;;;;;;5046787;28;19991;-56
2022/10/14 10:31:45;;;;;;;;;;;;;;;;;;5048430;28;19924;-56
2022/10/14 10:34:11;;;;;;;;;;;;;;;;;;5047010;28;20319;-56
2022/10/14 10:36:37;;;;;;;;;;;;;;;;;;5047342;28;19925;-56
2022/10/14 10:39:02;;;;;;;;;;;;;;;;;;5046378;28;20461;-56
2022/10/14 10:41:28;;;;;;;;;;;;;;;;;;5047537;28;19928;-56
2022/10/14 10:43:56;;;;;;;;;;;;;;;;;;5047266;28;19925;-56
2022/10/14 10:46:22;;;;;;;;;;;;;;;;;;5038766;28;20359;-56
2022/10/14 10:48:49;;;;;;;;;;;;;;;;;;5047980;28;19924;-56
2022/10/14 10:51:15;;;;;;;;;;;;;;;;;;5040303;28;19932;-56
2022/10/14 10:53:41;;;;;;;;;;;;;;;;;;5046599;28;19924;-56
2022/10/14 10:56:07;;;;;;;;;;;;;;;;;;5047609;28;19968;-56
2022/10/14 10:58:34;;;;;;;;;;;;;;;;;;5047378;28;19947;-56
2022/10/14 11:01:00;;;;;;;;;;;;;;;;;;5047593;28;19967;-56
2022/10/14 11:03:26;;;;;;;;;;;;;;;;;;5047617;28;19968;-56
2022/10/14 11:05:52;;;;;;;;;;;;;;;;;;5047696;28;19956;-58
2022/10/14 11:13:47;;;;;;;;;;;;;;;;;;5047556;28;19925;-57
2022/10/14 11:16:13;;;;;;;;;;;;;;;;;;5046330;28;19925;-57
2022/10/14 11:18:44;;;;;;;;;;;;;;;;;;5047610;28;20137;-57
2022/10/14 11:21:09;;;;;;;;;;;;;;;;;;5046667;28;19979;-57
2022/10/14 11:23:35;;;;;;;;;;;;;;;;;;5046125;28;19968;-57
2022/10/14 11:26:02;;;;;;;;;;;;;;;;;;5047026;28;20298;-57
2022/10/14 11:28:28;;;;;;;;;;;;;;;;;;5046780;28;20280;-57
2022/10/14 11:31:03;;;;;;;8.45;7.13;;;;;;;;;;5046647;28;19931;-58
2022/10/14 11:33:44;;;;;;;6.43;5.35;;;;;;;;;;5039917;28;20377;-58
2022/10/14 11:36:10;;;;;;;;;;;;;;;;;;5044169;28;20045;-57
2022/10/14 11:38:36;;;;;;;;;;;;;;;;;;5041556;28;20324;-57
2022/10/14 11:41:01;;;;;;;;;;;;;;;;;;5037469;28;19928;-58
2022/10/14 11:43:27;;;;;;;;;;;;;;;;;;5046118;28;19921;-58
2022/10/14 11:45:53;;;;;;;;;;;;;;;;;;5046622;28;19920;-58
2022/10/14 11:48:22;;;;;;;4.50;3.63;;;;;;;;;;5045101;28;19924;-57
2022/10/14 11:50:51;;;;;;;5.20;3.92;;;;;;;;;;5045408;28;20507;-58
2022/10/14 11:53:20;;;;;;;5.30;4.15;;;;;;;;;;5046267;28;20124;-58
2022/10/14 11:55:50;;;;;;;4.72;4.03;;;;;;;;;;5046802;28;20096;-57
2022/10/14 11:58:19;;;;;;;3.75;3.38;;;;;;;;;;5045499;28;20041;-58
2022/10/14 12:00:46;;;;;;;3.60;3.30;;;;;;;;;;5046911;28;20504;-57
2022/10/14 12:03:12;;;;;;;;;;;;;;;;;;5046692;28;20194;-57
2022/10/14 12:05:38;;;;;;;;;;;;;;;;;;5046428;28;19920;-57
2022/10/14 12:08:04;;;;;;;;;;;;;;;;;;5046986;28;19967;-58
2022/10/14 12:10:30;;;;;;;;;;;;;;;;;;5046044;28;19967;-57
2022/10/14 12:12:56;;;;;;;;;;;;;;;;;;5046286;28;19921;-58
2022/10/14 12:15:22;;;;;;;;;;;;;;;;;;5046171;28;19925;-56
2022/10/14 12:17:48;;;;;;;;;;;;;;;;;;5046063;28;19924;-57
2022/10/14 12:20:14;;;;;;;;;;;;;;;;;;5046963;28;20448;-57
2022/10/14 12:22:40;;;;;;;;;;;;;;;;;;5047233;28;19921;-58
2022/10/14 12:25:06;;;;;;;;;;;;;;;;;;5046236;28;19920;-58
2022/10/14 12:27:31;;;;;;;;;;;;;;;;;;5046666;28;19935;-57
2022/10/14 12:29:57;;;;;;;;;;;;;;;;;;5039297;28;19920;-58
2022/10/14 12:32:23;;;;;;;;;;;;;;;;;;5042763;28;19924;-57
2022/10/14 12:34:49;;;;;;;;;;;;;;;;;;5037863;28;19932;-58
2022/10/14 12:37:15;;;;;;;;;;;;;;;;;;5045425;28;20288;-58
2022/10/14 12:39:41;;;;;;;;;;;;;;;;;;5045878;28;19921;-57
2022/10/14 12:42:07;;;;;;;;;;;;;;;;;;5045961;28;20383;-57
2022/10/14 12:44:33;;;;;;;;;;;;;;;;;;5046310;28;19966;-57
2022/10/14 12:46:59;;;;;;;;;;;;;;;;;;5044783;28;19925;-57
2022/10/14 12:49:25;;;;;;;;;;;;;;;;;;5046514;28;20380;-58
2022/10/14 12:51:51;;;;;;;;;;;;;;;;;;5046245;28;19931;-58
2022/10/14 12:54:17;;;;;;;;;;;;;;;;;;5045074;28;19921;-58
2022/10/14 12:56:42;;;;;;;;;;;;;;;;;;5047070;28;19924;-58
2022/10/14 12:59:08;;;;;;;;;;;;;;;;;;5041690;28;19921;-58
2022/10/14 13:01:34;;;;;;;;;;;;;;;;;;5034499;28;19924;-57
2022/10/14 13:04:00;;;;;;;;;;;;;;;;;;5044108;28;20295;-58
2022/10/14 13:06:27;;;;;;;;;;;;;;;;;;5034883;28;19999;-57
2022/10/14 13:08:53;;;;;;;;;;;;;;;;;;5044331;28;20003;-57
2022/10/14 13:11:18;;;;;;;;;;;;;;;;;;5044522;28;20124;-57
2022/10/14 13:13:48;;;;;;;;;;;;;;;;;;5045489;28;19927;-58
2022/10/14 13:16:13;;;;;;;;;;;;;;;;;;5037878;28;19924;-58
2022/10/14 13:18:39;;;;;;;;;;;;;;;;;;5039477;28;19925;-58
2022/10/14 13:21:05;;;;;;;;;;;;;;;;;;5038044;28;19921;-58
2022/10/14 13:23:31;;;;;;;;;;;;;;;;;;5040099;28;20848;-58
2022/10/14 13:25:57;;;;;;;;;;;;;;;;;;5041677;28;19921;-58
2022/10/14 13:28:23;;;;;;;;;;;;;;;;;;5040822;28;20023;-58
2022/10/14 13:30:49;;;;;;;;;;;;;;;;;;5032483;28;19929;-58
2022/10/14 13:33:15;;;;;;;;;;;;;;;;;;5043013;28;20538;-57
2022/10/14 13:35:41;;;;;;;;;;;;;;;;;;5041412;28;19960;-58
2022/10/14 13:38:07;;;;;;;;;;;;;;;;;;5042994;28;19935;-58
2022/10/14 13:40:35;;;;;;;;;;;;;;;;;;5043094;28;19920;-58
2022/10/14 13:43:01;;;;;;;;;;;;;;;;;;5042934;28;20379;-58
2022/10/14 13:45:27;;;;;;;;;;;;;;;;;;5043074;28;19975;-58
2022/10/14 13:47:53;;;;;;;;;;;;;;;;;;5042468;28;19925;-58
2022/10/14 13:50:19;;;;;;;;;;;;;;;;;;5042591;28;20303;-57
2022/10/14 13:52:49;;;;;;;4.13;3.30;;;;;;;;;;5042825;28;19970;-58
2022/10/14 13:55:17;;;;;;;2.92;2.72;;;;;;;;;;5041936;28;20037;-57
2022/10/14 13:57:43;;;;;;;3.33;2.95;;;;;;;;;;5037535;28;20231;-57
2022/10/14 14:00:26;;;;;;;3.97;3.67;;;;;;;;;;5039393;28;20041;-58
2022/10/14 14:02:52;;;;;;;5.18;4.68;;;;;;;;;;5040513;28;20045;-58
2022/10/14 14:05:19;;;;;;;4.57;4.18;;;;;;;;;;5043195;28;20045;-58
2022/10/14 14:07:46;;;;;;;5.10;4.60;;;;;;;;;;5043771;28;20041;-58
2022/10/14 14:10:17;;;;;;;5.82;5.22;;;;;;;;;;5041331;28;20803;-58
2022/10/14 14:12:43;;;;;;;5.30;4.70;;;;;;;;;;5047202;28;20067;-58
2022/10/14 14:15:39;;;;;;;4.95;4.43;;;;;;;;;;5046416;28;20049;-58
2022/10/14 14:18:05;;;;;;;5.15;4.65;;;;;;;;;;5044376;28;20057;-58
2022/10/14 14:20:32;;;;;;;5.68;5.10;;;;;;;;;;5047043;28;20103;-58
2022/10/14 14:22:58;;;;;;;5.95;5.40;;;;;;;;;;5046165;28;20237;-58
2022/10/14 14:25:26;;;;;;;5.35;4.85;;;;;;;;;;5044668;28;20055;-58
2022/10/14 14:27:56;;;;;;;5.65;5.15;;;;;;;;;;5045363;28;20072;-58
2022/10/14 14:30:27;;;;;;;5.93;5.32;;;;;;;;;;5057612;28;20045;-58
2022/10/14 14:32:54;;;;;;;5.22;4.75;;;;;;;;;;5044698;28;20037;-57
2022/10/14 14:35:20;;;;;;;5.20;4.72;;;;;;;;;;5044536;28;20125;-58
2022/10/14 14:37:46;;;;;;;4.32;3.92;;;;;;;;;;5047415;28;20095;-57
2022/10/14 14:40:18;;;;;;;5.07;4.57;;;;;;;;;;5041991;28;20045;-58
2022/10/14 14:42:45;;;;;;;4.78;4.15;;;;;;;;;;5036900;28;20041;-56
2022/10/14 14:45:31;;;;;;;4.93;4.53;;;;;;;;;;5045511;28;20515;-58
2022/10/14 14:47:58;;;;;;;5.43;4.90;;;;;;;;;;5033807;28;20054;-58
2022/10/14 14:50:27;;;;;;;4.53;4.13;;;;;;;;;;5046553;28;20080;-58
2022/10/14 14:52:54;;;;;;;5.68;5.13;;;;;;;;;;5044911;28;20080;-58
2022/10/14 14:55:37;;;;;;;5.03;4.63;;;;;;;;;;5046621;28;20521;-57
2022/10/14 14:58:04;;;;;;;3.47;3.17;;;;;;;;;;5046881;28;20041;-58
2022/10/14 15:00:31;;;;;;;4.20;3.90;;;;;;;;;;5046408;28;20063;-58
2022/10/14 15:02:59;;;;;;;4.65;4.25;;;;;;;;;;5047246;28;20057;-58
2022/10/14 15:05:25;;;;;;;3.53;3.22;;;;;;;;;;5044901;28;20527;-57
2022/10/14 15:07:51;;;;;;;3.25;3.03;;;;;;;;;;5044088;28;20580;-58
2022/10/14 15:10:24;;;;;;;4.00;3.60;;;;;;;;;;5046952;28;20513;-57
2022/10/14 15:12:52;;;;;;;4.07;3.67;;;;;;;;;;5047854;28;20056;-58
2022/10/14 15:15:29;;;;;;;3.28;2.97;;;;;;;;;;5047047;28;20045;-58
2022/10/14 15:18:14;;;;;;;3.50;3.20;;;;;;;;;;5048102;28;20119;-58
2022/10/14 15:20:41;;;;;;;3.13;2.92;;;;;;;;;;5046943;28;20052;-58
2022/10/14 15:23:37;;;;;;;3.58;3.28;;;;;;;;;;5047169;28;20037;-58
2022/10/14 15:26:03;;;;;;;3.80;3.38;;;;;;;;;;5046126;28;20367;-57
2022/10/14 15:28:30;;;;;;;3.58;3.28;;;;;;;;;;5046634;28;20043;-58
2022/10/14 15:30:56;;;;;;;4.10;3.72;;;;;;;;;;5047748;28;20047;-58
2022/10/14 15:33:23;;;;;;;6.97;6.13;;;;;;;;;;5047044;28;20468;-58
2022/10/14 15:36:16;;;;;;;5.43;4.68;;;;;;;;;;5046773;28;20051;-58
2022/10/14 15:38:42;;;;;;;4.72;4.03;;;;;;;;;;5047141;28;20048;-57
2022/10/14 15:41:09;;;;;;;4.47;4.07;;;;;;;;;;5047051;28;20111;-58
2022/10/14 15:43:38;;;;;;;3.20;2.97;;;;;;;;;;5046471;28;20446;-58
2022/10/14 15:48:51;;;;;;;2.55;2.35;;;;;;;;;;5046620;28;20361;-57
2022/10/14 15:51:18;;;;;;;2.53;2.38;;;;;;;;;;5046742;28;20647;-58
2022/10/14 15:53:44;;;;;;;3.00;2.80;;;;;;;;;;5046977;28;20049;-58
2022/10/14 15:56:10;;;;;;;2.72;2.53;;;;;;;;;;5046325;28;20037;-58
2022/10/14 15:58:36;;;;;;;2.13;2.00;;;;;;;;;;5046629;28;20048;-57
2022/10/14 16:01:04;;;;;;;2.27;2.10;;;;;;;;;;5046767;28;20041;-58
2022/10/14 16:03:30;;;;;;;2.88;2.67;;;;;;;;;;5046349;28;20419;-58
2022/10/14 16:05:56;;;;;;;2.65;2.45;;;;;;;;;;5047303;28;20130;-58
2022/10/14 16:08:23;;;;;;;2.00;1.90;;;;;;;;;;5036480;28;20037;-57
2022/10/14 16:10:49;;;;;;;2.47;2.35;;;;;;;;;;5039398;28;20061;-58
2022/10/14 16:13:15;;;;;;;2.40;2.28;;;;;;;;;;5027278;28;19925;-57
2022/10/14 16:15:58;;;;;;;2.33;1.85;;;;;;;;;;5026873;28;20053;-57
2022/10/14 16:18:24;;;;;;;1.83;1.73;;;;;;;;;;5025605;28;20037;-58